• Join FlightAware (Why Join?)
  • Login
  • US Flag 
02:02PM EDT


 

Airport Tracker/Info


-or-


 

Live Flight TrackerFlight Track Log ✈ FFT143 ✈ 02-Jul-2013 ✈ KIAH - KDEN

Flight Track Log - Related Links

Times and Time Zones

All times are in EDT time to prevent confusion due to time zone crossing. See the FFT143 flight status page for this flight to view local times or setup timezone preferences in your user account.

Time Position Orientation Groundspeed Altitude Reporting Facility
EDT Latitude Longitude Course Direction KTS MPH feet Rate Location/Type
07:17AM 29.9528 -95.3375 108° East 163 188 900  Level Houston Center
07:17AM 29.9464 -95.3142 108° East 174 200 1,700 1,320 Climbing Houston Center
07:18AM 29.9939 -95.2933 21° North 254 292 2,900 2,220 Climbing Houston Center
07:19AM 30.0628 -95.3186 342° North 255 293 6,200 3,180 Climbing Houston Center
07:20AM 30.1267 -95.3667 327° Northwest 271 312 9,400 2,580 Climbing Houston Center
07:21AM 30.1972 -95.4144 330° Northwest 292 336 11,500 2,460 Climbing Houston Center
07:22AM 30.2753 -95.4697 329° Northwest 324 373 14,400 2,760 Climbing Houston Center
07:23AM 30.3714 -95.5383 328° Northwest 337 388 17,100 2,400 Climbing Houston Center
07:24AM 30.4550 -95.5961 329° Northwest 349 402 19,300 2,100 Climbing Houston Center
07:25AM 30.5411 -95.6567 329° Northwest 358 412 21,400 1,860 Climbing Houston Center
07:26AM 30.6397 -95.7047 337° Northwest 381 438 23,200 1,680 Climbing Houston Center
07:27AM 30.7356 -95.7600 334° Northwest 381 438 24,900 1,680 Climbing Houston Center
07:28AM 30.8367 -95.8139 335° Northwest 392 451 26,600 1,560 Climbing Houston Center
07:29AM 30.9408 -95.8694 335° Northwest 402 463 28,100 1,500 Climbing Houston Center
07:30AM 31.0481 -95.9278 335° Northwest 414 476 29,700 1,380 Climbing Houston Center
07:31AM 31.1564 -95.9819 337° Northwest 420 483 31,000 1,200 Climbing Houston Center
07:32AM 31.2750 -96.0261 342° North 433 498 32,200 1,140 Climbing Houston Center
07:33AM 31.3908 -96.0708 342° North 437 503 33,400 1,560 Climbing Houston Center
07:34AM 31.5106 -96.1164 342° North 427 491 35,400 1,380 Climbing Houston Center
07:35AM 31.6219 -96.1603 341° North 419 482 36,300 1,140 Climbing Houston Center
07:36AM 31.7342 -96.2044 341° North 420 483 37,800 780 Climbing Houston Center
07:37AM 31.8408 -96.2453 342° North 405 466 38,000 60 Climbing Houston Center
07:38AM 31.9494 -96.2883 341° North 407 468 38,000  Level Houston Center
07:39AM 32.0464 -96.3581 329° Northwest 406 467 38,000  Level Houston Center
07:40AM 32.1386 -96.4364 324° Northwest 405 466 38,000  Level Houston Center
07:41AM 32.2311 -96.5147 324° Northwest 405 466 38,000  Level Houston Center
07:42AM 32.3217 -96.5944 323° Northwest 403 464 38,000  Level Houston Center
07:43AM 32.4222 -96.6850 323° Northwest 409 471 38,000  Level Fort Worth Center
07:44AM 32.5122 -96.7631 324° Northwest 409 471 38,000  Level Fort Worth Center
07:45AM 32.6025 -96.8414 324° Northwest 409 471 38,000  Level Fort Worth Center
07:46AM 32.6925 -96.9172 325° Northwest 409 471 38,000  Level Fort Worth Center
07:47AM 32.7742 -96.9908 323° Northwest 409 471 38,000  Level Fort Worth Center
07:48AM 32.8747 -97.0769 324° Northwest 409 471 38,000  Level Fort Worth Center
07:49AM 32.9564 -97.1486 324° Northwest 414 476 38,000  Level Fort Worth Center
07:50AM 33.0567 -97.2375 323° Northwest 414 476 38,000  Level Fort Worth Center
07:51AM 33.1444 -97.3117 325° Northwest 422 486 38,000  Level Fort Worth Center
07:52AM 33.2319 -97.3911 323° Northwest 415 478 38,000  Level Fort Worth Center
07:53AM 33.3239 -97.4706 324° Northwest 415 478 38,000  Level Fort Worth Center
07:54AM 33.4156 -97.5528 323° Northwest 415 478 38,000  Level Fort Worth Center
07:55AM 33.5053 -97.6328 323° Northwest 415 478 38,000  Level Fort Worth Center
07:56AM 33.5950 -97.7128 323° Northwest 415 478 38,000  Level Fort Worth Center
07:57AM 33.6844 -97.7928 323° Northwest 415 478 38,000  Level Fort Worth Center
07:58AM 33.7739 -97.8733 323° Northwest 410 472 38,000  Level Fort Worth Center
07:59AM 33.8633 -97.9539 323° Northwest 410 472 38,000  Level Fort Worth Center
08:00AM 33.9528 -98.0344 323° Northwest 410 472 38,000  Level Fort Worth Center
08:01AM 34.0419 -98.1153 323° Northwest 410 472 38,000  Level Fort Worth Center
08:02AM 34.1269 -98.2014 320° Northwest 410 472 38,000  Level Fort Worth Center
08:03AM 34.2183 -98.2800 325° Northwest 410 472 38,000  Level Fort Worth Center
08:04AM 34.3075 -98.3664 321° Northwest 410 472 38,000  Level Fort Worth Center
08:05AM 34.3964 -98.4453 324° Northwest 410 472 38,000  Level Fort Worth Center
08:06AM 34.4856 -98.5269 323° Northwest 410 472 38,000  Level Fort Worth Center
08:07AM 34.5744 -98.6089 323° Northwest 410 472 38,000  Level Fort Worth Center
08:08AM 34.6633 -98.6858 325° Northwest 405 466 38,000  Level Fort Worth Center
08:09AM 34.7606 -98.7733 324° Northwest 400 460 38,000  Level Fort Worth Center
08:10AM 34.8494 -98.8558 323° Northwest 400 460 38,000  Level Fort Worth Center
08:11AM 34.9358 -98.9383 322° Northwest 400 460 38,000  Level Fort Worth Center
08:12AM 35.0247 -99.0208 323° Northwest 400 460 38,000  Level Fort Worth Center
08:13AM 35.1111 -99.1039 322° Northwest 394 453 38,000  Level Fort Worth Center
08:14AM 35.1975 -99.1844 323° Northwest 394 453 38,000  Level Fort Worth Center
08:15AM 35.2839 -99.2650 323° Northwest 394 453 38,000  Level Fort Worth Center
08:17AM 35.4069 -99.3806 323° Northwest 397 457 38,000  Level Kansas City Center
08:18AM 35.4944 -99.4628 323° Northwest 395 455 38,000  Level Kansas City Center
08:19AM 35.5997 -99.5622 322° Northwest 394 453 38,000  Level Kansas City Center
08:20AM 35.6864 -99.6453 322° Northwest 392 451 38,000  Level Kansas City Center
08:21AM 35.7719 -99.7272 322° Northwest 389 448 38,000  Level Kansas City Center
08:22AM 35.8583 -99.8100 322° Northwest 388 447 38,000  Level Kansas City Center
08:23AM 35.9447 -99.8928 322° Northwest 389 448 38,000  Level Kansas City Center
08:24AM 36.0300 -99.9742 322° Northwest 387 445 38,000  Level Kansas City Center
08:25AM 36.1147 -100.0572 322° Northwest 387 445 38,000  Level Kansas City Center
08:26AM 36.1997 -100.1394 322° Northwest 385 443 38,000  Level Kansas City Center
08:27AM 36.2850 -100.2211 322° Northwest 385 443 38,000  Level Kansas City Center
08:28AM 36.3703 -100.3044 322° Northwest 387 445 38,000  Level Kansas City Center
08:29AM 36.4625 -100.3919 323° Northwest 384 442 38,000  Level Kansas City Center
08:30AM 36.5419 -100.4722 321° Northwest 385 443 38,000  Level Kansas City Center
08:31AM 36.6364 -100.5647 322° Northwest 385 443 38,000  Level Kansas City Center
08:32AM 36.7156 -100.6442 321° Northwest 383 441 38,000  Level Kansas City Center
08:33AM 36.7961 -100.7239 322° Northwest 384 442 38,000  Level Kansas City Center
08:34AM 36.8900 -100.8161 322° Northwest 384 442 38,000  Level Kansas City Center
08:35AM 36.9692 -100.8961 321° Northwest 382 440 38,000  Level Kansas City Center
08:36AM 37.0481 -100.9756 321° Northwest 381 438 38,000  Level Kansas City Center
08:37AM 37.1258 -101.0897 311° West 381 438 38,000  Level Kansas City Center
08:38AM 37.1925 -101.1875 311° West 384 442 38,000  Level Kansas City Center
08:39AM 37.2686 -101.3000 310° West 379 436 38,000  Level Kansas City Center
08:41AM 37.3336 -101.3944 311° West 374 430 38,000  Level Kansas City Center
08:42AM 37.3989 -101.4900 311° West 374 430 38,000  Level Kansas City Center
08:43AM 37.4736 -101.6017 310° West 372 428 38,000  Level Kansas City Center
08:44AM 37.5375 -101.6947 311° West 369 425 38,000  Level Kansas City Center
08:45AM 37.6006 -101.7886 310° West 367 422 38,000  Level Kansas City Center
08:46AM 37.6747 -101.8989 310° West 367 422 38,000  Level Kansas City Center
08:47AM 37.7431 -101.9889 314° West 369 425 38,000  Level Kansas City Center
08:48AM 37.8208 -102.0972 312° West 371 427 38,000  Level Kansas City Center
08:49AM 37.8889 -102.1892 313° West 373 429 38,000  Level Kansas City Center
08:50AM 37.9669 -102.2978 312° West 372 428 38,000  Level Denver Center
08:51AM 38.0353 -102.3894 313° West 373 429 38,000 -120 Level Denver Center
08:52AM 38.1131 -102.4975 312° West 372 428 37,800 -600 Descending Denver Center
08:53AM 38.1797 -102.5900 313° West 370 426 36,900 -840 Descending Denver Center
08:54AM 38.2464 -102.6808 313° West 368 423 36,100 -480 Descending Denver Center
08:55AM 38.3228 -102.7897 312° West 368 423 36,000 -60 Descending Denver Center
08:56AM 38.3903 -102.8831 313° West 373 429 36,000  Level Denver Center
08:57AM 38.4683 -102.9928 312° West 374 430 36,000  Level Denver Center
08:58AM 38.5350 -103.0856 313° West 371 427 36,000  Level Denver Center
08:59AM 38.6033 -103.1817 312° West 376 433 36,000 -900 Level Denver Center
09:00AM 38.6744 -103.2817 312° West 381 438 34,200 -2,160 Descending Denver Center
09:01AM 38.7450 -103.3828 312° West 382 440 31,700 -2,520 Descending Denver Center
09:02AM 38.8250 -103.4969 312° West 374 430 29,100 -2,220 Descending Denver Center
09:03AM 38.8828 -103.5794 312° West 371 427 27,300 -2,220 Descending Denver Center
09:04AM 38.9631 -103.6939 312° West 361 415 24,600 -2,160 Descending Denver Center
09:05AM 39.0156 -103.7719 311° West 361 415 23,000 -1,980 Descending Denver Center
09:06AM 39.0936 -103.8828 312° West 350 403 20,600 -2,100 Descending Denver Center
09:07AM 39.1564 -103.9739 312° West 344 396 18,800 -1,560 Descending Denver Center
09:08AM 39.2186 -104.0639 312° West 338 389 17,500 -1,260 Descending Denver Center
09:09AM 39.2778 -104.1450 313° West 311 358 16,300 -1,620 Descending Denver Center
09:10AM 39.3664 -104.1536 356° North 294 338 14,200 -1,800 Descending Denver Center
09:11AM 39.4461 -104.1550 359° North 292 336 12,700 -1,140 Descending Denver Center
09:12AM 39.5300 -104.1547 360° North 299 344 11,900 -360 Descending Denver Center
09:13AM 39.6042 -104.1569 359° North 263 303 12,000  Climbing Denver Center
09:14AM 39.6797 -104.1589 359° North 252 290 12,000 -60 Level Denver Center
09:15AM 39.7494 -104.1589 360° North 252 290 11,900 -300 Descending Denver Center
09:16AM 39.8125 -104.1586 360° North 229 264 11,500 -660 Descending Denver Center
09:17AM 39.8719 -104.1847 341° North 235 270 10,600 -780 Descending Denver Center
09:18AM 39.8733 -104.2658 271° West 225 259 10,000 -660 Descending Denver Center
09:19AM 39.8744 -104.3456 271° West 223 257 9,300 -960 Descending Denver Center
09:20AM 39.8753 -104.4239 271° West 218 251 8,100 -1,200 Descending Denver Center
09:21AM 39.8761 -104.5086 271° West 218 251 6,900 -1,020 Descending Denver Center
09:22AM 39.8764 -104.5683 270° West 168 193 6,100 -780 Descending Denver Center
09:23AM 39.8769 -104.6181 271° West 142 163 5,400 -720 Descending Denver Center
09:25AM 39.8500 -104.6667 247° West  Level FlightAware Approximate
09:32AM 39.8617 -104.6732 247° West  Level Estimated
09:33AM 39.8617 -104.6732 247° West  Level Estimated
09:34AM 39.8617 -104.6732 247° West  Level Estimated